Walsenburg, Colorado
Current Conditions -  °F | °C
As of 9:49 AM on Monday 22 Dec 2014 (Local Time) from KVTP Reporting Station
Light Snow Light Snow  
Wind Chill: 27°   Ceiling: 1700
Heat Index: 27°   Visibility: 3mi
Dew Point: 21°   Wind: 3mph
Humidity: 80%   Direction: 220°SW
Pressure: 29.75"   Gusts: NA
Location:  37.62°N, 104.78°W
Report Text: KVTP 221649Z AUTO 22003KT 3SM -SN BKN017 BKN023 OVC032 M03/M06 A2975 RMK AO2
Loading
Personal Weather Stations






























Interactive Weather Map New forecast layout! Learn more

10-Day Weather Forecast

Advertisements
Track Severe Weather on mobile